createdAt,value
2023-05-14T00:00:17.752Z,53.2
2023-05-14T00:02:17.686Z,55.8
2023-05-14T00:04:17.783Z,56.5
2023-05-14T00:06:18.204Z,55.6
2023-05-14T00:08:18.237Z,55.5
2023-05-14T00:10:17.686Z,58
2023-05-14T00:12:17.755Z,58.2
2023-05-14T00:14:17.796Z,58.8
2023-05-14T00:16:18.936Z,57.1
2023-05-14T00:18:17.631Z,58.2
2023-05-14T00:20:17.648Z,62.2
2023-05-14T00:22:19.099Z,63.8
2023-05-14T00:24:23.255Z,62.1
2023-05-14T00:26:17.606Z,62.1
2023-05-14T00:28:18.824Z,62.5
2023-05-14T00:30:17.742Z,65.7
2023-05-14T00:32:17.768Z,65
2023-05-14T00:34:20.607Z,66.4
2023-05-14T00:36:17.798Z,71.9
2023-05-14T00:38:17.750Z,68.8
2023-05-14T00:40:17.623Z,73.3
2023-05-14T00:42:17.697Z,73.3
2023-05-14T00:44:18.610Z,70.9
2023-05-14T00:46:17.679Z,75.5
2023-05-14T00:48:17.726Z,71.8
2023-05-14T00:50:25.321Z,76.6
2023-05-14T00:52:17.541Z,78.3
2023-05-14T00:54:17.839Z,72.7
2023-05-14T00:56:17.630Z,71.2
2023-05-14T00:58:29.496Z,70.7
2023-05-14T01:00:17.730Z,70.7
2023-05-14T01:02:17.600Z,70.1
2023-05-14T01:04:17.733Z,71.7
2023-05-14T01:06:17.743Z,71.1
2023-05-14T01:08:17.644Z,71.4
2023-05-14T01:10:17.589Z,72.2
2023-05-14T01:12:23.217Z,72.4
2023-05-14T01:14:20.556Z,73.1
2023-05-14T01:16:17.715Z,72.6
2023-05-14T01:18:17.839Z,74.2
2023-05-14T01:20:17.641Z,75.2
2023-05-14T01:22:17.687Z,76.9
2023-05-14T01:24:17.570Z,76.2
2023-05-14T01:26:17.549Z,75.7
2023-05-14T01:28:17.548Z,75.9
2023-05-14T01:30:17.570Z,75.8
2023-05-14T01:32:17.740Z,75.7
2023-05-14T01:34:20.004Z,76.1
2023-05-14T01:36:17.574Z,75.9
2023-05-14T01:38:17.767Z,76.4
2023-05-14T01:40:17.743Z,76.6
2023-05-14T01:42:17.696Z,77.3
2023-05-14T01:44:18.825Z,77.5
2023-05-14T01:46:22.155Z,76.8
2023-05-14T01:48:18.672Z,77.9
2023-05-14T01:50:17.585Z,76.8
2023-05-14T01:52:17.563Z,77.6
2023-05-14T01:54:17.591Z,77.2
2023-05-14T01:56:19.033Z,76.9
2023-05-14T01:58:17.518Z,77.7
2023-05-14T02:00:17.493Z,78.5
2023-05-14T02:02:17.543Z,78.9
2023-05-14T02:04:18.492Z,79.1
2023-05-14T02:06:17.514Z,78.1
2023-05-14T02:08:17.514Z,78.8
2023-05-14T02:10:17.827Z,78.6
2023-05-14T02:12:17.500Z,78.6
2023-05-14T02:14:18.858Z,79.2
2023-05-14T02:16:17.489Z,79.2
2023-05-14T02:18:17.487Z,78.6
2023-05-14T02:20:17.614Z,78.4
2023-05-14T02:22:17.580Z,78.4
2023-05-14T02:24:17.522Z,80.3
2023-05-14T02:26:17.553Z,80.9
2023-05-14T02:28:17.471Z,81.4
2023-05-14T02:30:19.154Z,79.3
2023-05-14T02:32:17.516Z,79.2
2023-05-14T02:34:17.623Z,79.3
2023-05-14T02:36:17.472Z,80.1
2023-05-14T02:38:17.656Z,79.1
2023-05-14T02:40:17.559Z,79.1
2023-05-14T02:42:17.474Z,79.6
2023-05-14T02:44:17.384Z,79.1
2023-05-14T02:46:17.512Z,79.8
2023-05-14T02:48:17.453Z,79.1
2023-05-14T02:50:17.458Z,78.7
2023-05-14T02:52:18.940Z,79.2
2023-05-14T02:54:19.128Z,80.4
2023-05-14T02:56:17.666Z,80.3
2023-05-14T02:58:17.585Z,80.4
2023-05-14T03:00:18.589Z,81.2
2023-05-14T03:02:17.505Z,82.1
2023-05-14T03:04:17.319Z,80.5
2023-05-14T03:06:17.415Z,80.4
2023-05-14T03:08:17.549Z,80.6
2023-05-14T03:10:17.346Z,79.6
2023-05-14T03:12:17.354Z,80.3
2023-05-14T03:14:17.356Z,79.5
2023-05-14T03:16:17.482Z,80
2023-05-14T03:18:17.473Z,79.2
2023-05-14T03:20:17.384Z,79.1
2023-05-14T03:22:17.445Z,79.5
2023-05-14T03:24:17.346Z,79.4
2023-05-14T03:26:17.346Z,79.3
2023-05-14T03:28:17.397Z,79.3
2023-05-14T03:30:17.306Z,79.2
2023-05-14T03:32:17.572Z,79.4
2023-05-14T03:34:17.483Z,79.8
2023-05-14T03:36:17.297Z,80.4
2023-05-14T03:38:17.297Z,79.8
2023-05-14T03:40:17.355Z,80
2023-05-14T03:42:17.290Z,80.6
2023-05-14T03:44:17.309Z,80.8
2023-05-14T03:46:17.327Z,80.6
2023-05-14T03:48:17.484Z,81.1
2023-05-14T03:50:18.888Z,81.2
2023-05-14T03:52:17.536Z,81.1
2023-05-14T03:54:17.388Z,81.4
2023-05-14T03:56:17.447Z,81.3
2023-05-14T03:58:17.603Z,81.3
2023-05-14T04:00:17.320Z,81.5
2023-05-14T04:02:21.551Z,81.7
2023-05-14T04:04:18.738Z,82
2023-05-14T04:06:21.512Z,81.9
2023-05-14T04:08:17.504Z,82.2
2023-05-14T04:10:17.393Z,82.3
2023-05-14T04:12:17.318Z,82.6
2023-05-14T04:14:17.600Z,82.8
2023-05-14T04:16:18.507Z,82.5
2023-05-14T04:18:17.295Z,82.4
2023-05-14T04:20:17.255Z,82.4
2023-05-14T04:22:17.371Z,82.4
2023-05-14T04:24:17.303Z,82.7
2023-05-14T04:26:17.224Z,82.3
2023-05-14T04:28:17.267Z,82.3
2023-05-14T04:30:17.243Z,82.7
2023-05-14T04:32:17.249Z,82.4
2023-05-14T04:34:18.769Z,82.5
2023-05-14T04:36:17.279Z,82.6
2023-05-14T04:38:17.406Z,82.6
2023-05-14T04:40:17.308Z,83.4
2023-05-14T04:42:17.222Z,82.7
2023-05-14T04:44:17.276Z,83.2
2023-05-14T04:46:17.309Z,82.8
2023-05-14T04:48:17.209Z,82.8
2023-05-14T04:50:17.203Z,82.8
2023-05-14T04:52:17.231Z,82.8
2023-05-14T04:54:17.401Z,82.7
2023-05-14T04:56:17.279Z,83.5
2023-05-14T04:58:17.217Z,83.7
2023-05-14T05:00:17.280Z,83.6
2023-05-14T05:02:17.351Z,83.1
2023-05-14T05:04:17.440Z,83
2023-05-14T05:06:17.244Z,82.9
2023-05-14T05:08:17.236Z,83
2023-05-14T05:10:18.437Z,83.2
2023-05-14T05:12:17.228Z,82.9
2023-05-14T05:14:17.398Z,82.9
2023-05-14T05:16:17.242Z,83
2023-05-14T05:18:18.293Z,83.4
2023-05-14T05:20:17.250Z,83.7
2023-05-14T05:22:18.763Z,83.1
2023-05-14T05:24:17.225Z,83.6
2023-05-14T05:26:17.225Z,83
2023-05-14T05:28:17.317Z,83.1
2023-05-14T05:30:18.207Z,82.8
2023-05-14T05:32:17.434Z,83.3
2023-05-14T05:34:17.228Z,83.1
2023-05-14T05:36:17.238Z,83.4
2023-05-14T05:38:17.290Z,83.2
2023-05-14T05:40:17.216Z,83.3
2023-05-14T05:42:17.299Z,83.4
2023-05-14T05:44:17.253Z,83.4
2023-05-14T05:46:17.214Z,83.7
2023-05-14T05:48:17.170Z,83.4
2023-05-14T05:50:18.418Z,83.4
2023-05-14T05:52:17.242Z,83.4
2023-05-14T05:54:17.170Z,84.1
2023-05-14T05:56:17.149Z,83.4
2023-05-14T05:58:17.165Z,83.5
2023-05-14T06:00:17.168Z,83.3
2023-05-14T06:02:17.176Z,83.5
2023-05-14T06:04:17.195Z,83.3
2023-05-14T06:06:17.165Z,83.1
2023-05-14T06:08:17.197Z,83.2
2023-05-14T06:10:17.185Z,83.4
2023-05-14T06:12:17.254Z,83.6
2023-05-14T06:14:18.289Z,83.4
2023-05-14T06:16:17.397Z,83.3
2023-05-14T06:18:17.144Z,83.3
2023-05-14T06:20:17.183Z,83.3
2023-05-14T06:22:17.176Z,83.4
2023-05-14T06:24:17.243Z,83.2
2023-05-14T06:26:18.181Z,83.2
2023-05-14T06:28:17.142Z,83.3
2023-05-14T06:30:21.817Z,83.2
2023-05-14T06:32:17.448Z,83.6
2023-05-14T06:34:17.192Z,83.7
2023-05-14T06:36:21.523Z,83.3
2023-05-14T06:38:17.222Z,83.3
2023-05-14T06:40:17.173Z,83.2
2023-05-14T06:42:17.244Z,83.2
2023-05-14T06:44:21.591Z,83.2
2023-05-14T06:46:17.287Z,83
2023-05-14T06:48:17.304Z,83.7
2023-05-14T06:50:17.153Z,83.5
2023-05-14T06:52:17.186Z,83.4
2023-05-14T06:54:17.105Z,83.4
2023-05-14T06:56:17.137Z,83.4
2023-05-14T06:58:17.089Z,83.6
2023-05-14T07:00:17.104Z,83.5
2023-05-14T07:02:17.096Z,83.6
2023-05-14T07:04:17.149Z,84.2
2023-05-14T07:06:17.074Z,83.9
2023-05-14T07:08:17.161Z,84.1
2023-05-14T07:10:17.072Z,83.7
2023-05-14T07:12:17.081Z,83.5
2023-05-14T07:14:17.069Z,83.6
2023-05-14T07:16:17.086Z,83.8
2023-05-14T07:18:17.184Z,84.2
2023-05-14T07:20:17.205Z,83.6
2023-05-14T07:22:17.296Z,83.6
2023-05-14T07:24:17.048Z,84
2023-05-14T07:26:17.064Z,83.5
2023-05-14T07:30:17.083Z,83.8
2023-05-14T07:32:17.064Z,83.3
2023-05-14T07:34:17.062Z,83.4
2023-05-14T07:36:17.044Z,83.5
2023-05-14T07:38:17.379Z,83.6
2023-05-14T07:40:17.205Z,83.7
2023-05-14T07:42:28.229Z,83.6
2023-05-14T07:44:17.107Z,83.5
2023-05-14T07:46:17.047Z,83.3
2023-05-14T07:48:17.178Z,83.8
2023-05-14T07:50:17.141Z,83.7
2023-05-14T07:52:17.232Z,83.5
2023-05-14T07:54:17.052Z,83.4
2023-05-14T07:56:17.256Z,84
2023-05-14T07:58:17.038Z,83.6
2023-05-14T08:00:17.013Z,83.6
2023-05-14T08:02:17.338Z,83.9
2023-05-14T08:04:17.216Z,83.6
2023-05-14T08:06:17.039Z,83.6
2023-05-14T08:08:17.035Z,83.9
2023-05-14T08:10:17.057Z,83.9
2023-05-14T08:12:16.969Z,84.2
2023-05-14T08:14:17.030Z,83.9
2023-05-14T08:16:17.115Z,83.4
2023-05-14T08:18:17.125Z,83.4
2023-05-14T08:20:17.055Z,83.4
2023-05-14T08:22:17.024Z,83.6
2023-05-14T08:24:16.996Z,83.6
2023-05-14T08:26:16.988Z,83.4
2023-05-14T08:28:17.022Z,83.5
2023-05-14T08:30:16.991Z,83.5
2023-05-14T08:32:23.160Z,83.5
2023-05-14T08:34:16.983Z,83.6
2023-05-14T08:36:16.980Z,83.4
2023-05-14T08:38:16.956Z,83.8
2023-05-14T08:40:17.050Z,83.4
2023-05-14T08:42:16.992Z,83.8
2023-05-14T08:44:16.981Z,83.2
2023-05-14T08:46:16.994Z,83.1
2023-05-14T08:48:17.048Z,83.2
2023-05-14T08:50:16.946Z,83.3
2023-05-14T08:52:16.993Z,83.3
2023-05-14T08:54:16.988Z,83.5
2023-05-14T08:56:17.176Z,83.3
2023-05-14T08:58:18.012Z,83.2
2023-05-14T09:00:16.931Z,83.5
2023-05-14T09:02:16.972Z,83.3
2023-05-14T09:04:17.045Z,83.4
2023-05-14T09:06:16.958Z,83.3
2023-05-14T09:08:16.935Z,83.4
2023-05-14T09:10:16.932Z,83.6
2023-05-14T09:12:17.225Z,83.9
2023-05-14T09:14:17.010Z,83.6
2023-05-14T09:16:16.951Z,83.4
2023-05-14T09:18:17.003Z,83.6
2023-05-14T09:20:17.006Z,83.8
2023-05-14T09:22:16.911Z,83.8
2023-05-14T09:24:16.946Z,83.7
2023-05-14T09:26:17.007Z,83.8
2023-05-14T09:28:21.261Z,83.9
2023-05-14T09:30:16.920Z,83.9
2023-05-14T09:32:18.362Z,83.9
2023-05-14T09:34:16.901Z,84
2023-05-14T09:36:17.052Z,83.9
2023-05-14T09:38:16.941Z,83.9
2023-05-14T09:40:17.018Z,84
2023-05-14T09:42:16.874Z,84
2023-05-14T09:44:16.943Z,84.1
2023-05-14T09:46:16.997Z,83.9
2023-05-14T09:48:16.997Z,84
2023-05-14T09:50:16.904Z,84.1
2023-05-14T09:52:17.030Z,84
2023-05-14T09:54:18.464Z,84
2023-05-14T09:56:16.939Z,83.8
2023-05-14T09:58:17.048Z,83.7
2023-05-14T10:00:19.527Z,83.7
2023-05-14T10:02:16.951Z,83.8
2023-05-14T10:04:16.934Z,83.8
2023-05-14T10:06:16.929Z,83.6
2023-05-14T10:08:18.478Z,83.5
2023-05-14T10:10:17.076Z,83.5
2023-05-14T10:12:16.944Z,83.5
2023-05-14T10:14:17.040Z,83.4
2023-05-14T10:16:16.940Z,83.4
2023-05-14T10:18:17.012Z,83.5
2023-05-14T10:20:16.872Z,83.6
2023-05-14T10:22:16.896Z,83.6
2023-05-14T10:24:16.875Z,83.6
2023-05-14T10:26:16.899Z,83.6
2023-05-14T10:28:16.912Z,83.5
2023-05-14T10:30:16.806Z,83.6
2023-05-14T10:32:17.117Z,83.4
2023-05-14T10:34:17.039Z,83.5
2023-05-14T10:36:18.064Z,83.3
2023-05-14T10:38:19.228Z,83.4
2023-05-14T10:40:16.898Z,83.3
2023-05-14T10:42:17.028Z,83.5
2023-05-14T10:44:17.015Z,83.4
2023-05-14T10:46:16.950Z,83.3
2023-05-14T10:48:16.898Z,83.8
2023-05-14T10:50:18.096Z,83.3
2023-05-14T10:52:16.986Z,83.2
2023-05-14T10:54:16.877Z,83.1
2023-05-14T10:56:18.175Z,83
2023-05-14T10:58:16.803Z,83.1
2023-05-14T11:00:16.853Z,83.3
2023-05-14T11:02:16.995Z,83.2
2023-05-14T11:04:16.968Z,83.1
2023-05-14T11:06:17.021Z,82.8
2023-05-14T11:08:18.219Z,82.7
2023-05-14T11:10:16.926Z,82.5
2023-05-14T11:12:16.963Z,82.4
2023-05-14T11:14:17.831Z,82.3
2023-05-14T11:16:23.090Z,82.3
2023-05-14T11:18:17.007Z,82.4
2023-05-14T11:20:16.897Z,82.5
2023-05-14T11:22:16.825Z,82.7
2023-05-14T11:24:16.978Z,82.6
2023-05-14T11:26:17.906Z,82.4
2023-05-14T11:28:18.029Z,82.6
2023-05-14T11:30:16.939Z,82.4
2023-05-14T11:32:16.922Z,82.2
2023-05-14T11:34:16.905Z,82.1
2023-05-14T11:36:19.496Z,82
2023-05-14T11:38:17.948Z,82.1
2023-05-14T11:40:17.923Z,82
2023-05-14T11:42:18.387Z,81.7
2023-05-14T11:44:16.817Z,81.7
2023-05-14T11:46:16.944Z,81.4
2023-05-14T11:48:16.789Z,81.3
2023-05-14T11:50:18.248Z,80.9
2023-05-14T11:52:16.856Z,80.4
2023-05-14T11:54:16.882Z,79.7
2023-05-14T11:56:17.026Z,79.6
2023-05-14T11:58:16.855Z,80.2
2023-05-14T12:00:16.950Z,79.6
2023-05-14T12:02:16.954Z,80
2023-05-14T12:04:16.914Z,79.7
2023-05-14T12:06:16.791Z,79.8
2023-05-14T12:08:16.839Z,80
2023-05-14T12:10:16.890Z,79.8
2023-05-14T12:12:16.978Z,79.4
2023-05-14T12:14:17.013Z,79.4
2023-05-14T12:16:16.997Z,78.9
2023-05-14T12:18:23.776Z,79.3
2023-05-14T12:20:16.718Z,79
2023-05-14T12:22:16.807Z,79.1
2023-05-14T12:24:16.714Z,79.6
2023-05-14T12:26:16.758Z,79.5
2023-05-14T12:28:16.893Z,79.2
2023-05-14T12:30:21.554Z,78.5
2023-05-14T12:32:17.015Z,77.8
2023-05-14T12:34:16.751Z,77.4
2023-05-14T12:36:21.554Z,76.1
2023-05-14T12:38:16.903Z,75.5
2023-05-14T12:40:16.773Z,75
2023-05-14T12:42:17.825Z,74.6
2023-05-14T12:44:16.947Z,73.3
2023-05-14T12:46:19.319Z,71.3
2023-05-14T12:48:16.797Z,69.5
2023-05-14T12:50:16.949Z,69.8
2023-05-14T12:52:25.877Z,69.5
2023-05-14T12:54:16.701Z,68.2
2023-05-14T12:56:16.695Z,68.7
2023-05-14T12:58:16.714Z,69.6
2023-05-14T13:00:16.817Z,69
2023-05-14T13:02:17.402Z,68.2
2023-05-14T13:04:16.929Z,68.2
2023-05-14T13:06:16.704Z,68.7
2023-05-14T13:08:18.085Z,69
2023-05-14T13:10:16.836Z,68.4
2023-05-14T13:12:17.227Z,66.3
2023-05-14T13:14:17.829Z,64.9
2023-05-14T13:16:17.229Z,64.2
2023-05-14T13:18:16.861Z,63.1
2023-05-14T13:20:24.670Z,64.3
2023-05-14T13:22:16.745Z,65
2023-05-14T13:24:17.024Z,66.4
2023-05-14T13:26:16.711Z,66.2
2023-05-14T13:28:16.786Z,64.1
2023-05-14T13:30:16.766Z,64.2
2023-05-14T13:32:16.774Z,64.6
2023-05-14T13:34:17.792Z,65.2
2023-05-14T13:36:16.915Z,65.3
2023-05-14T13:38:16.813Z,63.4
2023-05-14T13:40:28.259Z,64.8
2023-05-14T13:42:27.095Z,63.9
2023-05-14T13:44:16.761Z,63.7
2023-05-14T13:46:20.103Z,62.7
2023-05-14T13:48:16.718Z,62.1
2023-05-14T13:50:16.886Z,62.5
2023-05-14T13:52:16.727Z,61.9
2023-05-14T13:54:16.722Z,61.8
2023-05-14T13:56:16.767Z,64.5
2023-05-14T13:58:18.181Z,63.6
2023-05-14T14:00:17.858Z,62.1
2023-05-14T14:02:19.318Z,61.9
2023-05-14T14:04:16.814Z,61.5
2023-05-14T14:06:16.842Z,61.5
2023-05-14T14:08:23.183Z,63.1
2023-05-14T14:10:16.789Z,62.9
2023-05-14T14:12:16.726Z,62.4
2023-05-14T14:14:16.684Z,63.5
2023-05-14T14:16:16.764Z,61.9
2023-05-14T14:18:16.807Z,62.1
2023-05-14T14:20:17.826Z,61
2023-05-14T14:22:19.238Z,59.8
2023-05-14T14:24:17.878Z,60.1
2023-05-14T14:26:16.875Z,58.4
2023-05-14T14:28:16.741Z,58
2023-05-14T14:30:16.705Z,54.7
2023-05-14T14:32:19.485Z,52.3
2023-05-14T14:34:16.705Z,53.8
2023-05-14T14:36:18.022Z,54.3
2023-05-14T14:38:17.021Z,54.3
2023-05-14T14:40:18.160Z,54
2023-05-14T14:42:16.740Z,55.5
2023-05-14T14:44:17.786Z,52.9
2023-05-14T14:46:16.666Z,53.6
2023-05-14T14:48:16.658Z,52.1
2023-05-14T14:50:16.650Z,49.8
2023-05-14T14:52:19.617Z,52
2023-05-14T14:54:16.662Z,53.2
2023-05-14T14:56:18.006Z,51.6
2023-05-14T14:58:16.578Z,48.2
2023-05-14T15:00:34.397Z,49.8
2023-05-14T15:02:16.832Z,50.5
2023-05-14T15:04:16.658Z,51.1
2023-05-14T15:06:16.601Z,48.5
2023-05-14T15:08:04.975Z,48.5
2023-05-14T15:10:16.575Z,49.4
2023-05-14T15:12:16.673Z,51.4
2023-05-14T15:14:16.856Z,49.7
2023-05-14T15:16:16.645Z,50.3
2023-05-14T15:18:16.747Z,51.4
2023-05-14T15:20:18.167Z,50.9
2023-05-14T15:22:16.634Z,47.8
2023-05-14T15:24:16.744Z,45.5
2023-05-14T15:26:17.765Z,45.6
2023-05-14T15:28:02.291Z,45.6
2023-05-14T15:30:16.598Z,47.2
2023-05-14T15:32:16.731Z,48.2
2023-05-14T15:34:16.571Z,49.7
2023-05-14T15:36:16.603Z,46.6
2023-05-14T15:38:16.617Z,48.1
2023-05-14T15:40:16.644Z,45.9
2023-05-14T15:42:16.653Z,47
2023-05-14T15:44:16.716Z,48.6
2023-05-14T15:46:16.609Z,48.6
2023-05-14T15:48:16.823Z,48.3
2023-05-14T15:50:16.593Z,49
2023-05-14T15:52:16.756Z,48.3
2023-05-14T15:54:16.550Z,49.6
2023-05-14T15:56:16.580Z,48
2023-05-14T15:58:16.548Z,50.3
2023-05-14T16:00:16.530Z,48.7
2023-05-14T16:02:16.601Z,48.1
2023-05-14T16:04:16.524Z,49.4
2023-05-14T16:06:16.743Z,48.9
2023-05-14T16:08:17.563Z,48.4
2023-05-14T16:10:19.144Z,50
2023-05-14T16:12:17.629Z,49.3
2023-05-14T16:14:17.850Z,50.2
2023-05-14T16:16:16.559Z,49.6
2023-05-14T16:18:16.499Z,50.2
2023-05-14T16:20:18.003Z,48.8
2023-05-14T16:22:16.590Z,51.1
2023-05-14T16:24:16.596Z,52.5
2023-05-14T16:26:17.947Z,53.9
2023-05-14T16:28:16.767Z,51.5
2023-05-14T16:30:17.345Z,52.4
2023-05-14T16:32:16.763Z,49
2023-05-14T16:34:16.664Z,50.3
2023-05-14T16:36:16.749Z,49.2
2023-05-14T16:38:16.656Z,51.1
2023-05-14T16:40:16.548Z,52.6
2023-05-14T16:42:16.577Z,52.7
2023-05-14T16:44:16.464Z,52.7
2023-05-14T16:46:21.101Z,53.1
2023-05-14T16:48:16.642Z,50.4
2023-05-14T16:50:16.528Z,49.5
2023-05-14T16:52:16.674Z,49.6
2023-05-14T16:54:16.429Z,50.3
2023-05-14T16:56:16.484Z,50.7
2023-05-14T16:58:17.763Z,50.3
2023-05-14T17:00:16.533Z,51.3
2023-05-14T17:02:16.567Z,50.3
2023-05-14T17:04:16.692Z,50
2023-05-14T17:06:16.680Z,49.1
2023-05-14T17:08:16.458Z,48.8
2023-05-14T17:10:17.819Z,47.8
2023-05-14T17:12:16.490Z,47.7
2023-05-14T17:14:16.601Z,47.8
2023-05-14T17:16:16.530Z,50.6
2023-05-14T17:18:16.577Z,48
2023-05-14T17:20:16.998Z,48.6
2023-05-14T17:22:16.496Z,48.6
2023-05-14T17:24:16.557Z,47.2
2023-05-14T17:26:16.442Z,46.3
2023-05-14T17:28:17.664Z,48.1
2023-05-14T17:30:16.420Z,49.2
2023-05-14T17:32:19.038Z,48.2
2023-05-14T17:34:16.760Z,48.1
2023-05-14T17:36:17.802Z,47.5
2023-05-14T17:38:17.573Z,47
2023-05-14T17:40:16.729Z,48.6
2023-05-14T17:42:16.520Z,45.7
2023-05-14T17:44:16.482Z,45.9
2023-05-14T17:46:19.075Z,47.8
2023-05-14T17:48:16.346Z,48.7
2023-05-14T17:50:16.421Z,48.9
2023-05-14T17:52:16.440Z,46.2
2023-05-14T17:54:16.434Z,45.7
2023-05-14T17:56:19.050Z,46.4
2023-05-14T17:58:16.491Z,46.4
2023-05-14T18:00:16.369Z,46.9
2023-05-14T18:02:16.502Z,46.8
2023-05-14T18:04:17.727Z,48.4
2023-05-14T18:06:16.522Z,45.9
2023-05-14T18:08:17.445Z,46.7
2023-05-14T18:10:26.879Z,47.1
2023-05-14T18:12:16.726Z,47.4
2023-05-14T18:14:16.403Z,48.5
2023-05-14T18:16:16.394Z,47.9
2023-05-14T18:18:16.663Z,46.8
2023-05-14T18:20:16.452Z,46.9
2023-05-14T18:22:16.667Z,47.5
2023-05-14T18:24:16.586Z,48.1
2023-05-14T18:26:17.491Z,46.4
2023-05-14T18:28:16.400Z,45.3
2023-05-14T18:30:22.384Z,44.8
2023-05-14T18:32:16.349Z,44.1
2023-05-14T18:34:16.364Z,44.2
2023-05-14T18:36:16.421Z,44.3
2023-05-14T18:38:16.431Z,44.7
2023-05-14T18:40:18.575Z,42.7
2023-05-14T18:42:16.548Z,44.2
2023-05-14T18:44:16.338Z,44.1
2023-05-14T18:46:16.607Z,45.3
2023-05-14T18:48:17.963Z,47.2
2023-05-14T18:50:16.434Z,48.2
2023-05-14T18:52:16.419Z,46.9
2023-05-14T18:54:16.329Z,46.8
2023-05-14T18:56:17.698Z,45.1
2023-05-14T18:57:15.481Z,45.1
2023-05-14T18:58:16.435Z,46.2
2023-05-14T19:00:18.399Z,46.7
2023-05-14T19:02:18.653Z,46.3
2023-05-14T19:04:17.943Z,44.5
2023-05-14T19:06:20.725Z,44.8
2023-05-14T19:08:16.414Z,42.8
2023-05-14T19:10:17.510Z,42.7
2023-05-14T19:30:16.957Z,41.4
2023-05-14T19:30:43.619Z,40.7
2023-05-14T19:32:43.546Z,42.4
2023-05-14T19:34:43.658Z,42.7
2023-05-14T19:36:43.788Z,42.5
2023-05-14T19:38:43.485Z,42.8
2023-05-14T19:40:45.139Z,43.2
2023-05-14T19:42:43.597Z,44.3
2023-05-14T19:44:43.447Z,44.9
2023-05-14T19:46:43.457Z,42.3
2023-05-14T19:48:47.676Z,41.8
2023-05-14T19:50:43.379Z,39.3
2023-05-14T19:52:43.435Z,39.6
2023-05-14T19:54:43.428Z,41.7
2023-05-14T19:56:43.595Z,39.2
2023-05-14T19:58:43.426Z,38.6
2023-05-14T20:00:44.678Z,40.2
2023-05-14T20:02:44.639Z,41
2023-05-14T20:14:55.338Z,40.3
2023-05-14T20:16:11.006Z,40.3
2023-05-14T20:18:11.386Z,39
2023-05-14T20:20:11.404Z,40.3
2023-05-14T20:22:12.653Z,40.5
2023-05-14T20:24:09.791Z,40.7
2023-05-14T20:26:09.843Z,41
2023-05-14T20:28:09.656Z,40.8
2023-05-14T20:30:09.779Z,41.7
2023-05-14T20:32:10.277Z,41.3
2023-05-14T20:34:09.707Z,40.9
2023-05-14T20:36:10.008Z,41.6
2023-05-14T20:38:09.687Z,40.8
2023-05-14T20:40:09.878Z,41.5
2023-05-14T20:42:10.762Z,41.3
2023-05-14T20:44:09.988Z,41
2023-05-14T20:46:10.840Z,43.2
2023-05-14T20:48:09.682Z,40.7
2023-05-14T20:50:20.362Z,39.3
2023-05-14T20:50:52.374Z,39.3
2023-05-14T20:52:09.649Z,39.5
2023-05-14T20:54:09.679Z,39.5
2023-05-14T20:56:09.637Z,39.5
2023-05-14T20:58:09.861Z,39.9
2023-05-14T21:00:10.669Z,38.9
2023-05-14T21:02:10.994Z,39
2023-05-14T21:04:09.875Z,38.9
2023-05-14T21:06:09.729Z,40.4
2023-05-14T21:08:09.771Z,40.1
2023-05-14T21:10:09.777Z,40.6
2023-05-14T21:12:09.813Z,40.3
2023-05-14T21:14:09.777Z,40.7
2023-05-14T21:16:09.704Z,40.8
2023-05-14T21:18:09.803Z,40.8
2023-05-14T21:20:09.669Z,40.1
2023-05-14T21:22:10.862Z,39.7
2023-05-14T21:24:09.727Z,40.3
2023-05-14T21:26:09.727Z,41.4
2023-05-14T21:28:09.729Z,40.6
2023-05-14T21:30:09.669Z,40.7
2023-05-14T21:32:10.727Z,41.3
2023-05-14T21:34:09.633Z,41.4
2023-05-14T21:36:09.703Z,40.8
2023-05-14T21:38:09.667Z,41.6
2023-05-14T21:40:09.630Z,41.9
2023-05-14T21:42:09.695Z,41.8
2023-05-14T21:44:09.649Z,42
2023-05-14T21:46:09.679Z,40.8
2023-05-14T21:48:09.672Z,40.9
2023-05-14T21:50:09.632Z,41.3
2023-05-14T21:52:10.940Z,41.5
2023-05-14T21:54:13.013Z,41.2
2023-05-14T21:56:09.703Z,42
2023-05-14T21:58:09.562Z,41.9
2023-05-14T22:00:11.355Z,42.2
2023-05-14T22:02:10.307Z,42.3
2023-05-14T22:04:10.723Z,42.8
2023-05-14T22:06:09.686Z,43.3
2023-05-14T22:08:09.730Z,42.2
2023-05-14T22:10:09.555Z,42.9
2023-05-14T22:12:09.650Z,43.6
2023-05-14T22:14:10.787Z,44.2
2023-05-14T22:16:13.136Z,43.5
2023-05-14T22:18:09.599Z,43.9
2023-05-14T22:20:09.902Z,43.1
2023-05-14T22:22:11.950Z,43.1
2023-05-14T22:24:11.119Z,42.5
2023-05-14T22:26:12.114Z,43.6
2023-05-14T22:28:09.626Z,44.2
2023-05-14T22:30:10.766Z,44.1
2023-05-14T22:32:09.585Z,44.3
2023-05-14T22:34:11.011Z,44.8
2023-05-14T22:36:09.693Z,44.7
2023-05-14T22:38:15.059Z,44.9
2023-05-14T22:40:09.754Z,44.5
2023-05-14T22:42:09.629Z,43
2023-05-14T22:44:10.344Z,44.6
2023-05-14T22:46:09.623Z,44.4
2023-05-14T22:48:09.667Z,44.8
2023-05-14T22:50:09.570Z,45.1
2023-05-14T22:52:09.752Z,45.4
2023-05-14T22:54:09.785Z,45.8
2023-05-14T22:56:09.903Z,45.9
2023-05-14T22:58:09.657Z,46
2023-05-14T23:00:09.911Z,46.2
2023-05-14T23:02:09.686Z,46.3
2023-05-14T23:04:09.882Z,46.2
2023-05-14T23:06:09.680Z,46.7
2023-05-14T23:08:09.584Z,46.9
2023-05-14T23:10:10.944Z,47.8
2023-05-14T23:12:09.644Z,47.5
2023-05-14T23:14:09.555Z,47.7
2023-05-14T23:16:09.524Z,47.6
2023-05-14T23:18:09.708Z,47.7
2023-05-14T23:20:09.595Z,47.4
2023-05-14T23:22:09.579Z,47.7
2023-05-14T23:24:12.514Z,47.7
2023-05-14T23:26:10.577Z,47.4
2023-05-14T23:28:10.781Z,48.2
2023-05-14T23:30:11.348Z,49.4
2023-05-14T23:32:09.746Z,49.2
2023-05-14T23:34:09.574Z,48.9
2023-05-14T23:36:12.145Z,48.9
2023-05-14T23:38:10.749Z,49
2023-05-14T23:40:10.972Z,49.3
2023-05-14T23:42:12.008Z,49.7
2023-05-14T23:44:09.568Z,49.5
2023-05-14T23:46:09.681Z,49.7
2023-05-14T23:48:13.978Z,49.7
2023-05-14T23:50:09.725Z,50.3
2023-05-14T23:52:09.727Z,50.6
2023-05-14T23:54:09.718Z,50.3
2023-05-14T23:56:09.729Z,51.3
2023-05-14T23:58:15.240Z,51.2
